EFTUEFPO

Guest
Details From EFTU - Turku
To EFPO - Pori
Flight Number -
Tags generated
Created
Modified
Stats Distance 58 nm / 108 km
Max Altitude 4,400 ft / 1,341 m
Waypoints 3
Social Downloads 0
Likes 0
Share VATSIM

Download

Looking for another format? Having issues loading an existing format? Contact us
Advertisement - Login to hide

Notes

Basic altitude profile: - Ascent Rate: 2500ft/min - Ascent Speed: 250kts - Cruise Altitude: 35000ft - Cruise Speed: 420kts - Descent Rate: 1500ft/min - Descent Speed: 250kts Options: - Use NATs: yes - Use PACOTS: yes - Use low airways: yes - Use high airways: yes

Route

EFTU TUSKU EFPO

ID Type Via Altitude Latitude Longitude Leg Dist Tot Dist Heading (true) Name
O EFTU APT - 0 ft / 0 m 60.51412˚ 22.26281˚ - 0 nm - Turku
TUSKU FIX - 4,400 ft / 1,341 m 61.12472˚ 21.96417˚ 37 nm 37 nm 347° / 346° -
O EFPO APT - 0 ft / 0 m 61.46117˚ 21.79925˚ 20 nm 58 nm 347° / 347° Pori

Altitude Profile

Advertisement - Login to hide

EFTU

Details ICAO EFTU (TKU)
Name Turku
Region Finland
Timezone Europe/Helsinki (UTC+2.0)
Stats Elevation 161 ft / 49 m (AMSL)
Location 60.514115° 22.262812°
Runways 1
Magnetic Variation 7.975° E

METAR

EFTU 160920Z AUTO 13004KT 9999 FEW004 BKN009 OVC017 01/01 Q0995

Decode

TAF

TAF AMD EFTU 160923Z 1609/1709 18004KT 9999 -RA BKN017 TEMPO 1609/1612 6000 SHRA BKN009 BKN020CB BECMG 1616/1618 3000 BR BKN006 PROB30 1621/1705 0800 FZFG VV001 BECMG 1705/1707 9999 NSW BKN030

Decode

Departure Runways

ID Width Length Bearing (true) Bearing (mag) Surface Threshold Offset Overrun Length
08 197 ft / 60 m 8,175 ft / 2,492 m 84.82° 76.85° Asphalt 0 ft / 0 m 0 ft / 0 m
26 197 ft / 60 m 8,175 ft / 2,492 m 264.86° 256.89° Asphalt 0 ft / 0 m 0 ft / 0 m

EFPO

Details ICAO EFPO (POR)
Name Pori
Region Finland
Timezone Europe/Helsinki (UTC+2.0)
Stats Elevation 44 ft / 13 m (AMSL)
Location 61.461174° 21.799255°
Runways 2
Magnetic Variation 8.035° E

METAR

EFPO 160920Z AUTO 02003KT 9999 OVC004/// 01/00 Q0996

Decode

TAF

Not found

Destination Runways

ID Width Length Bearing (true) Bearing (mag) Surface Threshold Offset Overrun Length
12 197 ft / 60 m 7,692 ft / 2,345 m 125.81° 117.77° Asphalt 312 ft / 95 m 0 ft / 0 m
17 98 ft / 30 m 2,623 ft / 799 m 173.89° 165.85° Asphalt 400 ft / 122 m 0 ft / 0 m
30 197 ft / 60 m 7,692 ft / 2,345 m 305.84° 297.80° Asphalt 1,132 ft / 345 m 0 ft / 0 m
35 98 ft / 30 m 2,623 ft / 799 m 353.90° 345.86° Asphalt 400 ft / 122 m 0 ft / 0 m

Approach Navaids

Runway Type Ident Frequency Range Bearing (true) Bearing (mag) Slope Elevation
30 Localiser PO 109.10 MHz 18 nm / 33 km 305.81° 297.77° - 44 ft / 13 m (AMSL)
30 Glidescope PO 109.10 MHz 10 nm / 19 km 305.83° 297.79° 3.00° 44 ft / 13 m (AMSL)

Popular Alternatives